createdAt,value
2019-02-07T00:00:26.446Z,8.25
2019-02-07T00:02:58.248Z,9.30
2019-02-07T00:05:28.992Z,7.78
2019-02-07T00:08:03.376Z,8.63
2019-02-07T00:10:37.350Z,8.25
2019-02-07T00:13:09.552Z,8.00
2019-02-07T00:15:39.820Z,8.90
2019-02-07T00:18:10.258Z,7.55
2019-02-07T00:20:42.538Z,8.25
2019-02-07T00:23:12.876Z,7.35
2019-02-07T00:25:43.142Z,6.58
2019-02-07T00:28:13.368Z,6.17
2019-02-07T00:30:43.740Z,9.13
2019-02-07T00:33:13.968Z,7.80
2019-02-07T00:35:44.262Z,7.35
2019-02-07T00:38:14.642Z,7.42
2019-02-07T00:40:44.810Z,7.05
2019-02-07T00:43:15.014Z,8.45
2019-02-07T00:45:45.192Z,8.50
2019-02-07T00:48:15.359Z,8.60
2019-02-07T00:50:45.534Z,6.55
2019-02-07T00:53:15.729Z,7.40
2019-02-07T00:55:46.186Z,8.10
2019-02-07T00:58:16.362Z,7.50
2019-02-07T01:00:46.550Z,7.83
2019-02-07T01:03:16.746Z,7.05
2019-02-07T01:05:47.045Z,6.97
2019-02-07T01:08:17.304Z,7.92
2019-02-07T01:10:47.648Z,7.17
2019-02-07T01:13:17.892Z,6.28
2019-02-07T01:15:49.724Z,7.37
2019-02-07T01:18:20.299Z,7.33
2019-02-07T01:20:51.106Z,7.15
2019-02-07T01:23:21.870Z,6.42
2019-02-07T01:25:52.065Z,7.45
2019-02-07T01:28:22.348Z,8.05
2019-02-07T01:30:52.508Z,7.17
2019-02-07T01:33:22.914Z,8.20
2019-02-07T01:35:53.073Z,6.78
2019-02-07T01:38:23.214Z,6.95
2019-02-07T01:40:53.498Z,7.33
2019-02-07T01:43:23.618Z,8.05
2019-02-07T01:45:53.819Z,6.47
2019-02-07T01:48:25.806Z,6.33
2019-02-07T01:50:56.108Z,6.90
2019-02-07T01:53:26.462Z,7.10
2019-02-07T01:55:56.893Z,6.97
2019-02-07T01:58:28.057Z,7.75
2019-02-07T02:00:58.701Z,7.75
2019-02-07T02:03:28.833Z,7.35
2019-02-07T02:05:58.974Z,7.28
2019-02-07T02:08:29.270Z,8.05
2019-02-07T02:10:59.440Z,7.35
2019-02-07T02:13:30.335Z,7.87
2019-02-07T02:16:00.568Z,7.08
2019-02-07T02:18:30.865Z,7.20
2019-02-07T02:21:01.117Z,8.33
2019-02-07T02:23:31.421Z,7.97
2019-02-07T02:26:01.687Z,7.58
2019-02-07T02:28:31.989Z,7.62
2019-02-07T02:31:02.209Z,7.83
2019-02-07T02:33:32.377Z,7.85
2019-02-07T02:36:02.533Z,8.13
2019-02-07T02:38:32.714Z,7.12
2019-02-07T02:41:03.233Z,7.72
2019-02-07T02:43:33.450Z,9.00
2019-02-07T02:46:03.623Z,6.58
2019-02-07T02:48:34.919Z,8.15
2019-02-07T02:51:05.137Z,8.08
2019-02-07T02:53:35.297Z,7.50
2019-02-07T02:56:08.547Z,8.53
2019-02-07T02:58:38.923Z,7.05
2019-02-07T03:01:28.311Z,7.78
2019-02-07T03:04:13.925Z,7.05
2019-02-07T03:07:01.621Z,9.43
2019-02-07T03:09:53.511Z,7.40
2019-02-07T03:12:43.545Z,7.95
2019-02-07T03:15:30.925Z,9.13
2019-02-07T03:18:17.553Z,7.37
2019-02-07T03:21:12.476Z,8.10
2019-02-07T03:24:08.997Z,8.68
2019-02-07T03:27:01.108Z,9.45
2019-02-07T03:29:53.671Z,10.00
2019-02-07T03:32:45.605Z,9.33
2019-02-07T03:35:45.790Z,10.58
2019-02-07T03:38:34.240Z,9.28
2019-02-07T03:41:26.663Z,7.87
2019-02-07T03:44:10.251Z,8.90
2019-02-07T03:47:02.173Z,9.28
2019-02-07T03:49:49.519Z,8.33
2019-02-07T03:52:54.058Z,8.23
2019-02-07T03:55:32.955Z,9.55
2019-02-07T03:58:25.724Z,11.30
2019-02-07T04:01:27.013Z,8.28
2019-02-07T04:04:13.108Z,10.25
2019-02-07T04:07:02.435Z,10.08
2019-02-07T04:09:53.953Z,8.65
2019-02-07T04:12:46.181Z,9.05
2019-02-07T04:15:36.493Z,9.28
2019-02-07T04:18:26.167Z,9.95
2019-02-07T04:21:12.732Z,10.55
2019-02-07T04:24:11.580Z,9.65
2019-02-07T04:27:17.578Z,9.73
2019-02-07T04:30:14.345Z,10.18
2019-02-07T04:33:02.990Z,8.35
2019-02-07T04:35:47.889Z,8.78
2019-02-07T04:38:37.060Z,8.50
2019-02-07T04:41:23.985Z,9.88
2019-02-07T04:44:25.728Z,9.03
2019-02-07T04:47:13.210Z,9.73
2019-02-07T04:49:54.458Z,8.35
2019-02-07T04:52:47.979Z,9.15
2019-02-07T04:55:35.594Z,8.68
2019-02-07T04:58:28.727Z,9.50
2019-02-07T05:01:20.729Z,8.98
2019-02-07T05:04:19.133Z,8.55
2019-02-07T05:07:11.566Z,8.95
2019-02-07T05:10:06.540Z,8.13
2019-02-07T05:13:04.820Z,9.28
2019-02-07T05:15:55.500Z,10.10
2019-02-07T05:18:58.755Z,11.35
2019-02-07T05:21:46.615Z,10.15
2019-02-07T05:24:36.342Z,8.73
2019-02-07T05:27:21.535Z,9.18
2019-02-07T05:30:10.418Z,9.78
2019-02-07T05:33:02.674Z,10.78
2019-02-07T05:35:57.969Z,10.70
2019-02-07T05:38:47.806Z,10.00
2019-02-07T05:41:38.658Z,9.38
2019-02-07T05:44:36.669Z,9.95
2019-02-07T05:47:25.940Z,8.48
2019-02-07T05:50:16.801Z,10.38
2019-02-07T05:53:15.843Z,9.55
2019-02-07T05:56:03.808Z,9.28
2019-02-07T05:58:53.231Z,11.18
2019-02-07T06:01:46.991Z,9.05
2019-02-07T06:04:45.262Z,10.72
2019-02-07T06:07:41.876Z,9.90
2019-02-07T06:10:29.867Z,9.95
2019-02-07T06:13:27.915Z,9.43
2019-02-07T06:16:27.990Z,9.13
2019-02-07T06:19:17.079Z,8.63
2019-02-07T06:22:12.091Z,10.80
2019-02-07T06:25:20.726Z,10.18
2019-02-07T06:28:03.573Z,9.98
2019-02-07T06:30:51.571Z,8.78
2019-02-07T06:33:43.765Z,10.03
2019-02-07T06:36:45.016Z,10.18
2019-02-07T06:39:40.004Z,9.58
2019-02-07T06:42:27.815Z,8.50
2019-02-07T06:45:13.791Z,10.40
2019-02-07T06:47:52.546Z,10.15
2019-02-07T06:50:48.160Z,12.07
2019-02-07T06:53:36.039Z,10.05
2019-02-07T06:56:34.112Z,11.22
2019-02-07T06:59:21.614Z,9.80
2019-02-07T07:02:09.323Z,10.15
2019-02-07T07:04:50.954Z,10.82
2019-02-07T07:07:52.077Z,10.85
2019-02-07T07:10:43.984Z,10.65
2019-02-07T07:13:23.657Z,10.25
2019-02-07T07:16:07.368Z,9.53
2019-02-07T07:19:09.279Z,9.18
2019-02-07T07:21:51.327Z,11.38
2019-02-07T07:24:46.197Z,10.38
2019-02-07T07:27:33.777Z,10.53
2019-02-07T07:30:32.599Z,10.75
2019-02-07T07:33:33.920Z,9.85
2019-02-07T07:36:26.588Z,11.25
2019-02-07T07:39:25.072Z,10.55
2019-02-07T07:42:32.568Z,11.08
2019-02-07T07:45:24.592Z,11.28
2019-02-07T07:48:32.095Z,11.12
2019-02-07T07:51:21.345Z,10.15
2019-02-07T07:54:25.769Z,12.75
2019-02-07T07:57:13.622Z,11.60
2019-02-07T08:00:02.902Z,11.88
2019-02-07T08:02:42.258Z,12.23
2019-02-07T08:05:31.500Z,10.43
2019-02-07T08:08:24.638Z,10.58
2019-02-07T08:11:13.782Z,11.38
2019-02-07T08:14:01.414Z,11.63
2019-02-07T08:16:54.529Z,11.45
2019-02-07T08:20:02.116Z,12.37
2019-02-07T08:22:54.098Z,11.08
2019-02-07T08:25:42.241Z,12.23
2019-02-07T08:28:34.377Z,11.70
2019-02-07T08:31:29.994Z,11.28
2019-02-07T08:34:23.075Z,11.00
2019-02-07T08:37:06.277Z,13.72
2019-02-07T08:39:53.809Z,12.75
2019-02-07T08:42:46.373Z,12.33
2019-02-07T08:45:43.196Z,13.30
2019-02-07T08:48:36.275Z,12.93
2019-02-07T08:51:20.559Z,12.90
2019-02-07T08:54:08.975Z,14.23
2019-02-07T08:57:16.387Z,12.58
2019-02-07T09:00:08.676Z,13.58
2019-02-07T09:03:01.379Z,12.85
2019-02-07T09:05:49.283Z,13.55
2019-02-07T09:08:41.468Z,11.48
2019-02-07T09:11:38.145Z,13.75
2019-02-07T09:14:25.321Z,13.80
2019-02-07T09:17:20.361Z,12.15
2019-02-07T09:20:01.479Z,12.18
2019-02-07T09:22:50.647Z,14.20
2019-02-07T09:25:42.823Z,12.40
2019-02-07T09:28:30.669Z,12.23
2019-02-07T09:31:25.615Z,11.12
2019-02-07T09:34:23.637Z,11.85
2019-02-07T09:37:12.787Z,12.03
2019-02-07T09:39:49.224Z,12.40
2019-02-07T09:42:41.403Z,13.20
2019-02-07T09:45:42.663Z,12.80
2019-02-07T09:48:31.695Z,12.50
2019-02-07T09:51:23.667Z,13.08
2019-02-07T09:54:13.241Z,13.22
2019-02-07T09:56:51.117Z,11.78
2019-02-07T09:59:46.142Z,13.10
2019-02-07T10:02:47.417Z,12.50
2019-02-07T10:05:30.515Z,12.28
2019-02-07T10:08:18.129Z,14.28
2019-02-07T10:11:06.117Z,12.95
2019-02-07T10:14:14.397Z,12.60
2019-02-07T10:17:03.995Z,12.03
2019-02-07T10:20:08.032Z,12.47
2019-02-07T10:22:57.156Z,12.25
2019-02-07T10:25:40.485Z,11.78
2019-02-07T10:28:29.883Z,12.58
2019-02-07T10:31:21.734Z,11.38
2019-02-07T10:34:21.939Z,12.23
2019-02-07T10:37:23.154Z,10.18
2019-02-07T10:40:13.552Z,10.48
2019-02-07T10:43:03.053Z,10.23
2019-02-07T10:46:01.565Z,10.65
2019-02-07T10:48:49.357Z,11.78
2019-02-07T10:51:43.541Z,11.93
2019-02-07T10:54:30.817Z,10.88
2019-02-07T10:57:24.107Z,11.90
2019-02-07T11:00:22.761Z,12.40
2019-02-07T11:03:06.248Z,12.43
2019-02-07T11:05:49.089Z,9.75
2019-02-07T11:08:44.680Z,14.13
2019-02-07T11:11:32.287Z,11.65
2019-02-07T11:14:39.715Z,13.28
2019-02-07T11:17:30.430Z,12.13
2019-02-07T11:20:24.616Z,10.85
2019-02-07T11:23:22.805Z,13.20
2019-02-07T11:26:08.832Z,12.43
2019-02-07T11:29:09.796Z,11.48
2019-02-07T11:31:55.018Z,9.38
2019-02-07T11:34:56.366Z,12.73
2019-02-07T11:37:44.260Z,10.43
2019-02-07T11:40:51.844Z,10.03
2019-02-07T11:43:40.054Z,10.65
2019-02-07T11:46:37.583Z,11.33
2019-02-07T11:49:40.534Z,12.30
2019-02-07T11:52:35.648Z,12.53
2019-02-07T11:55:25.423Z,10.85
2019-02-07T11:58:18.986Z,11.80
2019-02-07T12:01:06.847Z,11.40
2019-02-07T12:04:02.074Z,9.35
2019-02-07T12:06:54.362Z,11.53
2019-02-07T12:09:46.090Z,11.38
2019-02-07T12:12:33.128Z,10.82
2019-02-07T12:15:34.821Z,12.23
2019-02-07T12:18:42.549Z,11.90
2019-02-07T12:21:34.540Z,9.90
2019-02-07T12:24:23.664Z,10.55
2019-02-07T12:27:24.890Z,10.53
2019-02-07T12:30:07.861Z,9.65
2019-02-07T12:33:14.891Z,9.15
2019-02-07T12:35:53.022Z,8.95
2019-02-07T12:38:35.332Z,10.05
2019-02-07T12:41:26.750Z,8.83
2019-02-07T12:44:16.398Z,9.73
2019-02-07T12:47:08.727Z,7.80
2019-02-07T12:50:10.546Z,7.62
2019-02-07T12:53:01.331Z,7.05
2019-02-07T12:55:56.395Z,6.83
2019-02-07T12:58:57.982Z,6.85
2019-02-07T13:01:40.317Z,7.17
2019-02-07T13:04:29.794Z,6.40
2019-02-07T13:07:08.925Z,6.35
2019-02-07T13:10:03.939Z,6.35
2019-02-07T13:13:05.013Z,4.85
2019-02-07T13:16:06.382Z,4.20
2019-02-07T13:19:04.169Z,4.60
2019-02-07T13:21:55.569Z,4.37
2019-02-07T13:24:44.791Z,3.00
2019-02-07T13:27:34.042Z,3.37
2019-02-07T13:30:35.502Z,3.08
2019-02-07T13:33:33.941Z,3.70
2019-02-07T13:36:22.814Z,3.90
2019-02-07T13:39:18.079Z,3.47
2019-02-07T13:42:07.105Z,1.77
2019-02-07T13:45:13.837Z,3.08
2019-02-07T13:48:09.909Z,2.27
2019-02-07T13:50:59.739Z,2.55
2019-02-07T13:53:55.009Z,1.80
2019-02-07T13:56:50.313Z,2.22
2019-02-07T14:00:17.718Z,0.90
2019-02-07T14:03:05.283Z,1.55
2019-02-07T14:05:54.681Z,1.35
2019-02-07T14:08:53.908Z,1.95
2019-02-07T14:11:37.523Z,1.25
2019-02-07T14:14:29.933Z,1.20
2019-02-07T14:17:11.435Z,0.88
2019-02-07T14:20:13.046Z,1.15
2019-02-07T14:23:14.394Z,1.12
2019-02-07T14:26:02.585Z,0.50
2019-02-07T14:28:54.633Z,0.65
2019-02-07T14:31:42.694Z,0.60
2019-02-07T14:34:39.521Z,1.20
2019-02-07T14:37:25.579Z,2.05
2019-02-07T14:40:20.694Z,0.50
2019-02-07T14:43:21.707Z,1.07
2019-02-07T14:46:23.983Z,1.07
2019-02-07T14:48:55.079Z,1.25
2019-02-07T14:51:25.463Z,1.12
2019-02-07T14:53:56.358Z,1.65
2019-02-07T14:56:26.785Z,2.45
2019-02-07T14:59:01.405Z,2.45
2019-02-07T15:01:31.754Z,1.67
2019-02-07T15:06:44.709Z,2.17
2019-02-07T15:09:17.245Z,2.12
2019-02-07T15:11:58.489Z,2.27
2019-02-07T15:14:32.560Z,2.25
2019-02-07T15:17:03.009Z,2.67
2019-02-07T15:19:34.838Z,2.30
2019-02-07T15:22:05.964Z,1.60
2019-02-07T15:24:36.637Z,2.17
2019-02-07T15:27:09.937Z,1.98
2019-02-07T15:29:50.722Z,2.47
2019-02-07T15:32:21.028Z,1.92
2019-02-07T15:34:53.851Z,2.87
2019-02-07T15:37:23.994Z,1.70
2019-02-07T15:39:54.934Z,2.92
2019-02-07T15:42:34.202Z,2.10
2019-02-07T15:45:11.320Z,3.22
2019-02-07T15:47:41.734Z,3.33
2019-02-07T15:50:18.448Z,4.40
2019-02-07T15:52:51.989Z,2.67
2019-02-07T15:55:21.230Z,4.10
2019-02-07T15:57:51.597Z,3.67
2019-02-07T16:00:46.159Z,3.55
2019-02-07T16:03:34.637Z,3.30
2019-02-07T16:06:36.658Z,2.75
2019-02-07T16:09:18.821Z,4.08
2019-02-07T16:11:55.130Z,3.08
2019-02-07T16:14:38.392Z,3.27
2019-02-07T16:17:08.056Z,4.30
2019-02-07T16:19:38.377Z,4.62
2019-02-07T16:22:24.811Z,4.40
2019-02-07T16:25:03.897Z,3.77
2019-02-07T16:27:34.441Z,5.00
2019-02-07T16:30:10.058Z,5.80
2019-02-07T16:32:40.420Z,5.15
2019-02-07T16:35:11.783Z,5.03
2019-02-07T16:37:42.536Z,4.47
2019-02-07T16:40:13.158Z,5.30
2019-02-07T16:42:46.768Z,4.33
2019-02-07T16:45:22.063Z,4.42
2019-02-07T16:47:51.347Z,6.65
2019-02-07T16:50:22.235Z,6.53
2019-02-07T16:52:52.521Z,4.90
2019-02-07T16:55:28.820Z,4.85
2019-02-07T16:58:00.896Z,5.80
2019-02-07T17:00:32.078Z,5.92
2019-02-07T17:03:10.226Z,3.70
2019-02-07T17:05:41.837Z,4.62
2019-02-07T17:08:15.106Z,6.58
2019-02-07T17:10:58.125Z,4.67
2019-02-07T17:13:32.520Z,4.45
2019-02-07T17:16:11.119Z,6.53
2019-02-07T17:18:47.253Z,5.78
2019-02-07T17:21:17.875Z,6.28
2019-02-07T17:23:49.693Z,6.15
2019-02-07T17:26:20.167Z,5.35
2019-02-07T17:28:50.423Z,5.90
2019-02-07T17:31:20.743Z,5.47
2019-02-07T17:33:51.061Z,5.33
2019-02-07T17:36:24.103Z,6.30
2019-02-07T17:39:07.972Z,6.17
2019-02-07T17:41:39.739Z,5.28
2019-02-07T17:44:10.015Z,5.97
2019-02-07T17:46:40.495Z,5.70
2019-02-07T17:49:12.069Z,5.80
2019-02-07T17:51:42.980Z,7.30
2019-02-07T17:54:18.948Z,6.70
2019-02-07T17:56:51.569Z,6.20
2019-02-07T17:59:24.165Z,5.67
2019-02-07T18:01:54.442Z,6.20
2019-02-07T18:04:24.729Z,6.17
2019-02-07T18:06:58.137Z,6.22
2019-02-07T18:09:31.993Z,6.67
2019-02-07T18:12:02.179Z,6.15
2019-02-07T18:14:37.534Z,4.28
2019-02-07T18:17:07.844Z,4.80
2019-02-07T18:19:41.480Z,4.78
2019-02-07T18:22:15.136Z,4.47
2019-02-07T18:24:50.542Z,4.55
2019-02-07T18:27:20.835Z,3.65
2019-02-07T18:29:51.012Z,4.20
2019-02-07T18:32:21.270Z,4.37
2019-02-07T18:34:57.795Z,3.17
2019-02-07T18:37:30.847Z,2.42
2019-02-07T18:40:08.353Z,3.10
2019-02-07T18:42:38.721Z,3.52
2019-02-07T18:45:10.002Z,3.08
2019-02-07T18:47:44.614Z,3.60
2019-02-07T18:50:24.784Z,2.75
2019-02-07T18:52:56.595Z,2.55
2019-02-07T18:55:28.431Z,2.98
2019-02-07T18:57:58.598Z,2.35
2019-02-07T19:00:30.946Z,2.67
2019-02-07T19:03:01.391Z,3.30
2019-02-07T19:05:34.766Z,3.40
2019-02-07T19:08:06.321Z,2.50
2019-02-07T19:10:40.204Z,2.75
2019-02-07T19:13:10.735Z,1.92
2019-02-07T19:15:44.777Z,1.72
2019-02-07T19:18:21.213Z,1.65
2019-02-07T19:20:52.013Z,1.57
2019-02-07T19:23:23.191Z,1.40
2019-02-07T19:25:53.818Z,1.00
2019-02-07T19:28:24.260Z,1.75
2019-02-07T19:30:54.726Z,1.50
2019-02-07T19:33:26.782Z,1.00
2019-02-07T19:36:02.307Z,0.60
2019-02-07T19:38:34.037Z,0.80
2019-02-07T19:41:04.558Z,0.70
2019-02-07T19:43:40.005Z,1.35
2019-02-07T19:46:10.416Z,1.00
2019-02-07T19:48:41.255Z,0.88
2019-02-07T19:51:11.583Z,0.60
2019-02-07T19:53:48.327Z,2.17
2019-02-07T19:56:21.953Z,1.92
2019-02-07T19:58:52.680Z,1.70
2019-02-07T20:01:23.196Z,1.17
2019-02-07T20:03:55.167Z,0.80
2019-02-07T20:06:26.703Z,0.30
2019-02-07T20:08:57.754Z,0.98
2019-02-07T20:11:28.899Z,1.02
2019-02-07T20:14:01.220Z,0.80
2019-02-07T20:16:31.476Z,1.15
2019-02-07T20:19:06.255Z,0.55
2019-02-07T20:21:39.277Z,0.45
2019-02-07T20:24:09.641Z,0.53
2019-02-07T20:26:44.017Z,0.82
2019-02-07T20:29:18.806Z,1.15
2019-02-07T20:31:49.653Z,0.65
2019-02-07T20:34:20.153Z,1.00
2019-02-07T20:36:50.821Z,1.35
2019-02-07T20:39:21.323Z,1.10
2019-02-07T20:41:52.589Z,1.47
2019-02-07T20:44:22.860Z,0.90
2019-02-07T20:46:54.729Z,5.47
2019-02-07T20:49:25.112Z,1.05
2019-02-07T20:51:55.450Z,1.65
2019-02-07T20:54:25.704Z,1.05
2019-02-07T20:56:56.549Z,1.45
2019-02-07T20:59:26.762Z,1.62
2019-02-07T21:01:57.373Z,1.32
2019-02-07T21:04:30.381Z,0.95
2019-02-07T21:07:01.090Z,1.25
2019-02-07T21:09:34.585Z,1.50
2019-02-07T21:12:05.268Z,1.22
2019-02-07T21:14:35.775Z,1.05
2019-02-07T21:17:06.080Z,2.33
2019-02-07T21:19:36.571Z,1.47
2019-02-07T21:22:06.914Z,0.82
2019-02-07T21:24:37.238Z,1.50
2019-02-07T21:27:07.515Z,0.42
2019-02-07T21:29:37.824Z,1.02
2019-02-07T21:32:08.063Z,0.60
2019-02-07T21:34:38.232Z,0.35
2019-02-07T21:37:11.848Z,0.40
2019-02-07T21:39:42.358Z,0.47
2019-02-07T21:42:12.791Z,0.35
2019-02-07T21:44:43.085Z,0.40
2019-02-07T21:47:14.106Z,0.20
2019-02-07T21:49:44.582Z,1.07
2019-02-07T21:52:15.699Z,0.50
2019-02-07T21:54:48.235Z,2.05
2019-02-07T21:57:19.580Z,0.30
2019-02-07T21:59:50.694Z,0.20
2019-02-07T22:02:21.006Z,0.30
2019-02-07T22:04:51.285Z,0.10
2019-02-07T22:07:21.863Z,0.20
2019-02-07T22:09:52.176Z,0.10
2019-02-07T22:12:22.323Z,0.10
2019-02-07T22:14:52.523Z,0.10
2019-02-07T22:17:22.697Z,0.10
2019-02-07T22:19:53.298Z,0.28
2019-02-07T22:22:24.081Z,0.20
2019-02-07T22:24:54.779Z,0.20
2019-02-07T22:27:25.195Z,0.10
2019-02-07T22:29:55.728Z,0.10
2019-02-07T22:32:26.032Z,0.10
2019-02-07T22:34:57.098Z,0.10
2019-02-07T22:37:27.612Z,0.10
2019-02-07T22:39:58.786Z,0.10
2019-02-07T22:42:29.438Z,0.10
2019-02-07T22:44:59.674Z,0.13
2019-02-07T22:47:48.342Z,0.10
2019-02-07T22:50:20.640Z,0.40
2019-02-07T22:52:56.805Z,0.10
2019-02-07T22:55:25.263Z,0.10
2019-02-07T22:57:55.595Z,0.10
2019-02-07T23:01:42.692Z,0.10
2019-02-07T23:04:13.350Z,0.10
2019-02-07T23:06:49.862Z,0.10
2019-02-07T23:09:20.238Z,0.10
2019-02-07T23:11:50.576Z,0.10
2019-02-07T23:14:43.562Z,0.10
2019-02-07T23:17:14.116Z,0.10
2019-02-07T23:19:44.560Z,0.10
2019-02-07T23:22:15.655Z,0.10
2019-02-07T23:24:49.965Z,0.40
2019-02-07T23:27:20.346Z,0.10
2019-02-07T23:29:51.054Z,0.10
2019-02-07T23:32:24.062Z,0.10
2019-02-07T23:34:55.982Z,0.10
2019-02-07T23:37:48.732Z,0.10
2019-02-07T23:40:27.600Z,0.10
2019-02-07T23:42:58.773Z,0.15
2019-02-07T23:45:29.126Z,0.10
2019-02-07T23:48:12.561Z,0.20
2019-02-07T23:50:39.427Z,0.55
2019-02-07T23:53:14.626Z,0.20
2019-02-07T23:55:50.665Z,0.20
2019-02-07T23:58:21.066Z,0.10
